createdAt,value
2023-02-11T00:04:05.903Z,10.44
2023-02-11T00:09:11.977Z,14.09
2023-02-11T00:14:18.613Z,10.34
2023-02-11T00:19:25.111Z,15.82
2023-02-11T00:24:31.963Z,9.53
2023-02-11T00:29:38.558Z,10.24
2023-02-11T00:34:45.415Z,15.72
2023-02-11T00:39:52.077Z,11.86
2023-02-11T00:45:00.176Z,12.37
2023-02-11T00:50:06.561Z,8.62
2023-02-11T00:55:13.233Z,16.73
2023-02-11T01:00:19.853Z,18.15
2023-02-11T01:05:27.133Z,12.98
2023-02-11T01:10:33.310Z,10.04
2023-02-11T01:15:40.427Z,11.56
2023-02-11T01:20:47.850Z,10.65
2023-02-11T01:25:54.822Z,12.57
2023-02-11T01:31:02.230Z,10.65
2023-02-11T01:36:10.112Z,11.36
2023-02-11T01:41:16.479Z,18.15
2023-02-11T01:46:24.419Z,12.17
2023-02-11T01:51:30.918Z,11.56
2023-02-11T01:56:37.620Z,11.76
2023-02-11T02:01:44.242Z,17.34
2023-02-11T02:06:51.341Z,13.79
2023-02-11T02:11:57.502Z,12.07
2023-02-11T02:17:06.515Z,13.89
2023-02-11T02:22:12.956Z,10.24
2023-02-11T02:27:21.985Z,16.63
2023-02-11T02:32:28.187Z,12.37
2023-02-11T02:37:34.865Z,10.24
2023-02-11T02:42:41.495Z,10.14
2023-02-11T02:47:49.325Z,12.78
2023-02-11T02:52:56.089Z,15.31
2023-02-11T02:58:02.972Z,17.54
2023-02-11T03:03:09.293Z,10.44
2023-02-11T03:08:16.028Z,11.66
2023-02-11T03:13:22.680Z,18.46
2023-02-11T03:18:30.798Z,14.09
2023-02-11T03:23:37.365Z,12.07
2023-02-11T03:28:43.922Z,11.97
2023-02-11T03:33:51.057Z,11.97
2023-02-11T03:39:00.287Z,7.00
2023-02-11T03:44:09.667Z,12.57
2023-02-11T03:49:16.419Z,11.86
2023-02-11T03:54:23.258Z,14.50
2023-02-11T03:59:29.936Z,13.38
2023-02-11T04:04:36.468Z,10.75
2023-02-11T04:09:43.368Z,10.55
2023-02-11T04:14:49.548Z,17.54
2023-02-11T04:19:56.270Z,9.53
2023-02-11T04:25:02.654Z,12.17
2023-02-11T04:30:09.775Z,11.56
2023-02-11T04:35:16.187Z,13.89
2023-02-11T04:40:22.822Z,14.50
2023-02-11T04:45:30.305Z,13.18
2023-02-11T04:50:39.255Z,13.49
2023-02-11T04:55:45.703Z,13.59
2023-02-11T05:00:54.444Z,12.27
2023-02-11T05:06:00.793Z,16.53
2023-02-11T05:11:07.333Z,11.76
2023-02-11T05:16:13.789Z,14.91
2023-02-11T05:21:21.781Z,17.44
2023-02-11T05:26:29.120Z,11.26
2023-02-11T05:31:35.858Z,11.97
2023-02-11T05:36:42.511Z,13.69
2023-02-11T05:41:48.946Z,13.38
2023-02-11T05:46:55.202Z,12.68
2023-02-11T05:52:04.132Z,10.75
2023-02-11T05:57:10.681Z,15.11
2023-02-11T06:02:17.655Z,13.28
2023-02-11T06:07:23.971Z,12.17
2023-02-11T06:12:31.560Z,10.04
2023-02-11T06:17:37.879Z,14.80
2023-02-11T06:22:44.317Z,7.50
2023-02-11T06:27:50.801Z,13.89
2023-02-11T06:32:57.651Z,11.76
2023-02-11T06:38:03.984Z,11.46
2023-02-11T06:43:11.035Z,12.27
2023-02-11T06:48:17.801Z,15.92
2023-02-11T06:53:24.969Z,12.78
2023-02-11T06:58:31.609Z,11.97
2023-02-11T07:03:39.361Z,17.85
2023-02-11T07:08:47.385Z,11.76
2023-02-11T07:13:56.382Z,12.57
2023-02-11T07:19:04.115Z,15.31
2023-02-11T07:24:16.388Z,12.57
2023-02-11T07:29:12.862Z,11.26
2023-02-11T07:34:25.575Z,13.49
2023-02-11T07:39:23.042Z,14.50
2023-02-11T07:44:30.000Z,11.66
2023-02-11T07:49:36.442Z,10.44
2023-02-11T07:54:42.668Z,11.97
2023-02-11T07:59:49.494Z,19.27
2023-02-11T08:04:56.735Z,16.93
2023-02-11T08:10:05.654Z,19.27
2023-02-11T08:15:13.797Z,10.34
2023-02-11T08:20:20.948Z,11.46
2023-02-11T08:25:27.682Z,6.49
2023-02-11T08:30:35.959Z,10.34
2023-02-11T08:35:42.196Z,10.14
2023-02-11T08:40:52.389Z,15.62
2023-02-11T08:45:51.898Z,6.08
2023-02-11T08:51:00.582Z,11.56
2023-02-11T08:56:08.964Z,15.31
2023-02-11T09:01:15.766Z,8.21
2023-02-11T09:06:22.094Z,11.05
2023-02-11T09:11:28.776Z,10.14
2023-02-11T09:16:35.016Z,8.92
2023-02-11T09:21:44.064Z,8.92
2023-02-11T09:26:50.161Z,7.50
2023-02-11T09:31:58.869Z,5.98
2023-02-11T09:37:04.094Z,7.00
2023-02-11T09:42:10.823Z,12.37
2023-02-11T09:47:17.462Z,10.24
2023-02-11T09:52:24.358Z,7.71
2023-02-11T09:57:30.840Z,8.72
2023-02-11T10:02:37.701Z,5.88
2023-02-11T10:07:44.276Z,6.79
2023-02-11T10:12:51.335Z,5.48
2023-02-11T10:17:57.481Z,5.27
2023-02-11T10:23:04.142Z,6.79
2023-02-11T10:28:11.945Z,5.98
2023-02-11T10:33:20.288Z,5.48
2023-02-11T10:38:32.710Z,5.98
2023-02-11T10:43:30.693Z,8.82
2023-02-11T10:48:37.010Z,5.78
2023-02-11T10:53:47.046Z,5.17
2023-02-11T10:58:43.447Z,6.49
2023-02-11T11:03:52.328Z,5.68
2023-02-11T11:08:58.641Z,4.56
2023-02-11T11:14:05.740Z,5.98
2023-02-11T11:19:13.094Z,4.97
2023-02-11T11:24:22.057Z,3.85
2023-02-11T11:29:29.418Z,2.54
2023-02-11T11:34:36.143Z,3.45
2023-02-11T11:39:42.520Z,2.94
2023-02-11T11:44:49.249Z,5.27
2023-02-11T11:49:55.877Z,1.52
2023-02-11T11:55:02.485Z,2.64
2023-02-11T12:00:08.913Z,3.95
2023-02-11T12:05:15.633Z,5.48
2023-02-11T12:10:22.226Z,6.08
2023-02-11T12:15:29.150Z,2.84
2023-02-11T12:20:35.682Z,0.00
2023-02-11T12:25:42.176Z,3.75
2023-02-11T12:30:48.953Z,1.12
2023-02-11T12:35:54.957Z,3.04
2023-02-11T12:41:01.337Z,3.75
2023-02-11T12:46:09.225Z,2.33
2023-02-11T12:51:15.713Z,2.43
2023-02-11T12:56:23.511Z,4.26
2023-02-11T13:01:29.901Z,3.95
2023-02-11T13:06:37.882Z,5.98
2023-02-11T13:11:44.199Z,1.52
2023-02-11T13:16:51.136Z,1.62
2023-02-11T13:21:57.535Z,1.86
2023-02-11T13:27:04.612Z,2.74
2023-02-11T13:32:11.042Z,0.61
2023-02-11T13:37:17.500Z,0.71
2023-02-11T13:42:23.858Z,3.24
2023-02-11T13:47:30.578Z,2.13
2023-02-11T13:52:36.996Z,0.00
2023-02-11T13:57:44.748Z,1.01
2023-02-11T14:02:51.152Z,0.10
2023-02-11T14:07:57.818Z,0.61
2023-02-11T14:13:04.208Z,0.00
2023-02-11T14:18:10.768Z,1.52
2023-02-11T14:23:17.116Z,3.55
2023-02-11T14:28:23.906Z,4.66
2023-02-11T14:33:32.334Z,1.32
2023-02-11T14:38:38.801Z,0.41
2023-02-11T14:43:45.180Z,1.34
2023-02-11T14:48:52.171Z,1.22
2023-02-11T14:53:58.621Z,0.31
2023-02-11T14:59:06.129Z,0.30
2023-02-11T15:04:13.652Z,1.13
2023-02-11T15:09:20.395Z,0.10
2023-02-11T15:14:26.829Z,1.42
2023-02-11T15:19:34.514Z,0.20
2023-02-11T15:24:39.298Z,0.00
2023-02-11T15:29:47.262Z,0.00
2023-02-11T15:34:55.226Z,0.10
2023-02-11T15:40:02.195Z,4.46
2023-02-11T15:45:08.512Z,1.12
2023-02-11T15:50:15.202Z,2.84
2023-02-11T15:55:22.313Z,0.91
2023-02-11T16:00:28.897Z,0.71
2023-02-11T16:05:35.142Z,2.13
2023-02-11T16:10:42.402Z,4.66
2023-02-11T16:15:48.771Z,0.00
2023-02-11T16:20:55.389Z,3.75
2023-02-11T16:26:01.729Z,3.65
2023-02-11T16:31:08.857Z,3.24
2023-02-11T16:36:15.024Z,5.17
2023-02-11T16:41:21.703Z,7.10
2023-02-11T16:46:28.243Z,5.37
2023-02-11T16:51:36.194Z,5.88
2023-02-11T16:56:42.642Z,2.13
2023-02-11T17:01:49.337Z,5.37
2023-02-11T17:06:58.244Z,3.65
2023-02-11T17:12:03.057Z,4.16
2023-02-11T17:17:09.563Z,2.64
2023-02-11T17:22:16.596Z,5.68
2023-02-11T17:27:23.052Z,4.77
2023-02-11T17:32:30.835Z,5.58
2023-02-11T17:37:37.119Z,5.68
2023-02-11T17:42:43.715Z,9.94
2023-02-11T17:47:50.330Z,5.98
2023-02-11T17:52:56.983Z,6.19
2023-02-11T17:58:03.421Z,7.50
2023-02-11T18:03:10.237Z,6.69
2023-02-11T18:08:17.587Z,5.88
2023-02-11T18:13:24.426Z,9.13
2023-02-11T18:18:30.669Z,10.44
2023-02-11T18:23:37.228Z,4.77
2023-02-11T18:28:45.702Z,5.78
2023-02-11T18:33:51.420Z,10.44
2023-02-11T18:38:59.100Z,7.91
2023-02-11T18:44:05.838Z,5.98
2023-02-11T18:49:12.145Z,5.58
2023-02-11T18:54:18.841Z,10.34
2023-02-11T18:59:25.281Z,8.01
2023-02-11T19:04:32.124Z,5.78
2023-02-11T19:09:41.880Z,5.78
2023-02-11T19:14:47.697Z,5.98
2023-02-11T19:19:54.242Z,9.23
2023-02-11T19:25:02.028Z,5.98
2023-02-11T19:30:08.661Z,5.48
2023-02-11T19:35:16.485Z,7.50
2023-02-11T19:40:23.966Z,8.92
2023-02-11T19:45:31.783Z,6.19
2023-02-11T19:50:38.057Z,6.39
2023-02-11T19:55:46.854Z,7.50
2023-02-11T20:00:53.427Z,8.72
2023-02-11T20:06:00.309Z,8.92
2023-02-11T20:11:07.703Z,5.98
2023-02-11T20:16:14.372Z,5.88
2023-02-11T20:21:21.806Z,6.69
2023-02-11T20:26:29.348Z,5.68
2023-02-11T20:31:35.670Z,6.29
2023-02-11T20:36:44.364Z,8.31
2023-02-11T20:41:51.850Z,7.61
2023-02-11T20:46:59.729Z,5.98
2023-02-11T20:52:07.147Z,5.68
2023-02-11T20:57:13.529Z,11.56
2023-02-11T21:02:19.672Z,7.20
2023-02-11T21:07:27.248Z,6.19
2023-02-11T21:12:33.387Z,6.08
2023-02-11T21:17:39.719Z,10.85
2023-02-11T21:22:46.038Z,7.10
2023-02-11T21:27:52.753Z,10.14
2023-02-11T21:32:58.751Z,10.75
2023-02-11T21:38:06.186Z,5.78
2023-02-11T21:43:12.548Z,8.82
2023-02-11T21:48:20.324Z,9.02
2023-02-11T21:53:27.364Z,10.34
2023-02-11T21:58:34.893Z,6.49
2023-02-11T22:03:41.335Z,8.92
2023-02-11T22:08:47.547Z,7.71
2023-02-11T22:13:53.969Z,8.01
2023-02-11T22:19:00.367Z,9.63
2023-02-11T22:24:06.617Z,8.62
2023-02-11T22:29:13.298Z,7.91
2023-02-11T22:34:19.412Z,6.29
2023-02-11T22:39:26.063Z,9.94
2023-02-11T22:44:32.388Z,8.11
2023-02-11T22:49:38.968Z,7.71
2023-02-11T22:54:45.176Z,10.55
2023-02-11T22:59:51.939Z,10.44
2023-02-11T23:04:58.926Z,11.66
2023-02-11T23:10:05.509Z,10.55
2023-02-11T23:15:11.522Z,12.07
2023-02-11T23:20:17.930Z,10.55
2023-02-11T23:25:24.234Z,13.79
2023-02-11T23:30:30.674Z,8.72
2023-02-11T23:35:36.747Z,9.23
2023-02-11T23:40:43.363Z,11.86
2023-02-11T23:45:49.599Z,11.36
2023-02-11T23:50:56.087Z,10.75
2023-02-11T23:56:02.567Z,11.86
